Terminal Aerodrome Forecast
Issued by NWS Wakefield, VA

Current Version | Previous Version | Text Only | Print | Product List | Glossary On
Versions: 1 2 3 4 5 6 7 8 9 10 11 12 13 14 15 16 17
321
FTUS41 KAKQ 202320
TAFORF
TAF
KORF 202320Z 2100/2124 01004KT P6SM SKC
     FM211200 35006KT P6SM SCT250
     FM211500 02006KT P6SM SCT035
     FM212200 06005KT P6SM SCT150=

USA.gov is the U.S. government's official web portal to all federal, state and local government web resources and services.